sensor_id;sensor_type;location;lat;lon;timestamp;pressure;altitude;pressure_sealevel;temperature;humidity
4346;BME280;2186;49.866;7.986;2022-09-14T00:00:31;99376.59;;;19.48;100.00
4346;BME280;2186;49.866;7.986;2022-09-14T00:02:57;99391.56;;;19.52;100.00
4346;BME280;2186;49.866;7.986;2022-09-14T00:05:24;99396.69;;;19.44;100.00
4346;BME280;2186;49.866;7.986;2022-09-14T00:07:51;99399.75;;;19.40;100.00
4346;BME280;2186;49.866;7.986;2022-09-14T00:10:17;99403.56;;;19.37;100.00
4346;BME280;2186;49.866;7.986;2022-09-14T00:12:43;99417.31;;;19.57;100.00
4346;BME280;2186;49.866;7.986;2022-09-14T00:15:10;99434.47;;;19.56;100.00
4346;BME280;2186;49.866;7.986;2022-09-14T00:17:36;99455.06;;;19.79;100.00
4346;BME280;2186;49.866;7.986;2022-09-14T00:20:03;99468.56;;;19.90;100.00
4346;BME280;2186;49.866;7.986;2022-09-14T00:22:29;99477.75;;;19.76;100.00
4346;BME280;2186;49.866;7.986;2022-09-14T00:24:56;99483.13;;;19.65;100.00
4346;BME280;2186;49.866;7.986;2022-09-14T00:27:22;99489.09;;;19.46;100.00
4346;BME280;2186;49.866;7.986;2022-09-14T00:29:48;99471.91;;;19.36;100.00
4346;BME280;2186;49.866;7.986;2022-09-14T00:32:15;99456.31;;;19.64;100.00
4346;BME280;2186;49.866;7.986;2022-09-14T00:34:41;99439.59;;;19.47;100.00
4346;BME280;2186;49.866;7.986;2022-09-14T00:37:08;99428.66;;;19.38;100.00
4346;BME280;2186;49.866;7.986;2022-09-14T00:39:36;99429.78;;;19.46;100.00
4346;BME280;2186;49.866;7.986;2022-09-14T00:42:03;99411.78;;;19.47;100.00
4346;BME280;2186;49.866;7.986;2022-09-14T00:46:58;99374.47;;;18.96;100.00
4346;BME280;2186;49.866;7.986;2022-09-14T00:49:30;99370.16;;;18.82;100.00
4346;BME280;2186;49.866;7.986;2022-09-14T00:52:10;99374.19;;;18.88;100.00
4346;BME280;2186;49.866;7.986;2022-09-14T00:54:44;99355.31;;;18.77;100.00
4346;BME280;2186;49.866;7.986;2022-09-14T00:57:11;99351.94;;;18.97;100.00
4346;BME280;2186;49.866;7.986;2022-09-14T00:59:39;99353.69;;;19.09;100.00
4346;BME280;2186;49.866;7.986;2022-09-14T01:02:08;99369.00;;;19.20;100.00
4346;BME280;2186;49.866;7.986;2022-09-14T01:04:36;99374.28;;;19.66;100.00
4346;BME280;2186;49.866;7.986;2022-09-14T01:10:11;99359.19;;;19.30;100.00
4346;BME280;2186;49.866;7.986;2022-09-14T01:15:49;99345.13;;;19.38;100.00
4346;BME280;2186;49.866;7.986;2022-09-14T01:20:52;99331.66;;;19.38;100.00
4346;BME280;2186;49.866;7.986;2022-09-14T01:29:23;99303.34;;;19.21;100.00
4346;BME280;2186;49.866;7.986;2022-09-14T01:31:59;99289.03;;;19.20;100.00
4346;BME280;2186;49.866;7.986;2022-09-14T01:34:32;99292.44;;;19.34;100.00
4346;BME280;2186;49.866;7.986;2022-09-14T01:37:06;99287.28;;;19.31;100.00
4346;BME280;2186;49.866;7.986;2022-09-14T01:39:44;99286.22;;;19.33;100.00
4346;BME280;2186;49.866;7.986;2022-09-14T01:42:13;99265.00;;;19.29;100.00
4346;BME280;2186;49.866;7.986;2022-09-14T01:44:42;99266.47;;;19.33;100.00
4346;BME280;2186;49.866;7.986;2022-09-14T01:47:18;99264.13;;;19.50;100.00
4346;BME280;2186;49.866;7.986;2022-09-14T01:49:49;99266.50;;;19.10;100.00
4346;BME280;2186;49.866;7.986;2022-09-14T01:52:21;99260.84;;;19.24;100.00
4346;BME280;2186;49.866;7.986;2022-09-14T01:54:55;99269.91;;;19.23;100.00
4346;BME280;2186;49.866;7.986;2022-09-14T01:57:33;99274.28;;;19.58;100.00
4346;BME280;2186;49.866;7.986;2022-09-14T02:00:07;99276.63;;;19.40;100.00
4346;BME280;2186;49.866;7.986;2022-09-14T02:02:38;99276.63;;;19.40;100.00
4346;BME280;2186;49.866;7.986;2022-09-14T02:07:51;99266.97;;;19.38;100.00
4346;BME280;2186;49.866;7.986;2022-09-14T02:10:18;99271.72;;;19.45;100.00
4346;BME280;2186;49.866;7.986;2022-09-14T02:12:44;99269.53;;;19.39;100.00
4346;BME280;2186;49.866;7.986;2022-09-14T02:15:12;99270.03;;;19.22;100.00
4346;BME280;2186;49.866;7.986;2022-09-14T02:17:40;99270.03;;;19.33;100.00
4346;BME280;2186;49.866;7.986;2022-09-14T02:20:12;99264.75;;;19.32;100.00
4346;BME280;2186;49.866;7.986;2022-09-14T02:22:40;99271.25;;;19.29;100.00
4346;BME280;2186;49.866;7.986;2022-09-14T02:25:07;99281.66;;;19.34;100.00
4346;BME280;2186;49.866;7.986;2022-09-14T02:27:33;99279.19;;;19.53;100.00
4346;BME280;2186;49.866;7.986;2022-09-14T02:30:00;99295.28;;;19.87;100.00
4346;BME280;2186;49.866;7.986;2022-09-14T02:33:13;99292.41;;;19.45;100.00
4346;BME280;2186;49.866;7.986;2022-09-14T02:35:25;99290.09;;;19.29;100.00
4346;BME280;2186;49.866;7.986;2022-09-14T02:41:10;99284.59;;;19.31;100.00
4346;BME280;2186;49.866;7.986;2022-09-14T02:43:52;99286.69;;;19.27;100.00
4346;BME280;2186;49.866;7.986;2022-09-14T02:46:32;99284.00;;;19.27;100.00
4346;BME280;2186;49.866;7.986;2022-09-14T02:49:07;99285.34;;;19.55;100.00
4346;BME280;2186;49.866;7.986;2022-09-14T02:51:57;99287.41;;;19.51;100.00
4346;BME280;2186;49.866;7.986;2022-09-14T02:57:02;99287.41;;;19.29;100.00
4346;BME280;2186;49.866;7.986;2022-09-14T02:59:28;99285.22;;;19.23;100.00
4346;BME280;2186;49.866;7.986;2022-09-14T03:01:56;99280.69;;;19.23;100.00
4346;BME280;2186;49.866;7.986;2022-09-14T03:04:24;99275.44;;;19.22;100.00
4346;BME280;2186;49.866;7.986;2022-09-14T03:06:50;99281.03;;;19.30;100.00
4346;BME280;2186;49.866;7.986;2022-09-14T03:09:17;99270.78;;;19.24;100.00
4346;BME280;2186;49.866;7.986;2022-09-14T03:11:43;99276.75;;;19.16;100.00
4346;BME280;2186;49.866;7.986;2022-09-14T03:14:10;99271.38;;;19.16;100.00
4346;BME280;2186;49.866;7.986;2022-09-14T03:16:37;99263.28;;;19.28;100.00
4346;BME280;2186;49.866;7.986;2022-09-14T03:19:04;99263.75;;;19.44;100.00
4346;BME280;2186;49.866;7.986;2022-09-14T03:21:31;99268.28;;;19.66;100.00
4346;BME280;2186;49.866;7.986;2022-09-14T03:23:58;99269.53;;;19.62;100.00
4346;BME280;2186;49.866;7.986;2022-09-14T03:26:25;99258.28;;;19.89;100.00
4346;BME280;2186;49.866;7.986;2022-09-14T03:28:55;99247.22;;;19.48;100.00
4346;BME280;2186;49.866;7.986;2022-09-14T03:31:22;99230.22;;;19.14;100.00
4346;BME280;2186;49.866;7.986;2022-09-14T03:33:54;99223.38;;;18.99;100.00
4346;BME280;2186;49.866;7.986;2022-09-14T03:36:23;99218.13;;;18.86;100.00
4346;BME280;2186;49.866;7.986;2022-09-14T03:38:52;99205.78;;;18.84;100.00
4346;BME280;2186;49.866;7.986;2022-09-14T03:41:20;99198.41;;;18.86;100.00
4346;BME280;2186;49.866;7.986;2022-09-14T03:43:46;99200.25;;;18.97;100.00
4346;BME280;2186;49.866;7.986;2022-09-14T03:46:18;99194.63;;;19.00;100.00
4346;BME280;2186;49.866;7.986;2022-09-14T03:48:48;99193.03;;;19.08;100.00
4346;BME280;2186;49.866;7.986;2022-09-14T03:51:15;99199.59;;;19.15;100.00
4346;BME280;2186;49.866;7.986;2022-09-14T03:53:42;99199.28;;;19.09;100.00
4346;BME280;2186;49.866;7.986;2022-09-14T03:56:12;99212.13;;;19.05;100.00
4346;BME280;2186;49.866;7.986;2022-09-14T03:58:40;99208.69;;;19.14;100.00
4346;BME280;2186;49.866;7.986;2022-09-14T04:01:10;99201.09;;;19.19;100.00
4346;BME280;2186;49.866;7.986;2022-09-14T04:03:37;99214.53;;;19.31;100.00
4346;BME280;2186;49.866;7.986;2022-09-14T04:06:04;99215.88;;;19.25;100.00
4346;BME280;2186;49.866;7.986;2022-09-14T04:08:37;99209.38;;;19.28;100.00
4346;BME280;2186;49.866;7.986;2022-09-14T04:11:15;99214.56;;;19.19;100.00
4346;BME280;2186;49.866;7.986;2022-09-14T04:13:43;99208.19;;;19.20;100.00
4346;BME280;2186;49.866;7.986;2022-09-14T04:16:10;99215.66;;;19.17;100.00
4346;BME280;2186;49.866;7.986;2022-09-14T04:18:36;99210.38;;;19.15;100.00
4346;BME280;2186;49.866;7.986;2022-09-14T04:21:09;99200.72;;;19.13;100.00
4346;BME280;2186;49.866;7.986;2022-09-14T04:23:37;99203.78;;;19.19;100.00
4346;BME280;2186;49.866;7.986;2022-09-14T04:26:25;99211.97;;;19.18;100.00
4346;BME280;2186;49.866;7.986;2022-09-14T04:28:52;99206.84;;;19.15;100.00
4346;BME280;2186;49.866;7.986;2022-09-14T04:31:20;99202.56;;;19.12;100.00
4346;BME280;2186;49.866;7.986;2022-09-14T04:33:47;99201.22;;;19.07;100.00
4346;BME280;2186;49.866;7.986;2022-09-14T04:36:18;99202.56;;;19.12;100.00
4346;BME280;2186;49.866;7.986;2022-09-14T04:38:44;99205.44;;;19.32;100.00
4346;BME280;2186;49.866;7.986;2022-09-14T04:41:13;99209.38;;;19.28;100.00
4346;BME280;2186;49.866;7.986;2022-09-14T04:43:41;99207.22;;;19.21;100.00
4346;BME280;2186;49.866;7.986;2022-09-14T04:46:12;99199.25;;;19.20;100.00
4346;BME280;2186;49.866;7.986;2022-09-14T04:48:39;99195.81;;;19.18;100.00
4346;BME280;2186;49.866;7.986;2022-09-14T04:51:08;99187.91;;;19.05;100.00
4346;BME280;2186;49.866;7.986;2022-09-14T04:53:37;99195.72;;;19.19;100.00
4346;BME280;2186;49.866;7.986;2022-09-14T04:56:06;99194.09;;;19.17;100.00
4346;BME280;2186;49.866;7.986;2022-09-14T04:58:34;99189.59;;;19.06;100.00
4346;BME280;2186;49.866;7.986;2022-09-14T05:01:03;99197.03;;;19.14;100.00
4346;BME280;2186;49.866;7.986;2022-09-14T05:03:30;99198.75;;;19.15;100.00
4346;BME280;2186;49.866;7.986;2022-09-14T05:06:04;99203.53;;;19.11;100.00
4346;BME280;2186;49.866;7.986;2022-09-14T05:08:31;99197.31;;;19.11;100.00
4346;BME280;2186;49.866;7.986;2022-09-14T05:10:58;99197.66;;;19.17;100.00
4346;BME280;2186;49.866;7.986;2022-09-14T05:13:25;99204.88;;;19.17;100.00
4346;BME280;2186;49.866;7.986;2022-09-14T05:15:51;99204.75;;;19.18;100.00
4346;BME280;2186;49.866;7.986;2022-09-14T05:18:18;99188.50;;;19.09;100.00
4346;BME280;2186;49.866;7.986;2022-09-14T05:20:44;99192.03;;;19.09;100.00
4346;BME280;2186;49.866;7.986;2022-09-14T05:23:11;99193.88;;;19.20;100.00
4346;BME280;2186;49.866;7.986;2022-09-14T05:25:37;99187.97;;;19.15;100.00
4346;BME280;2186;49.866;7.986;2022-09-14T05:28:03;99184.56;;;19.13;100.00
4346;BME280;2186;49.866;7.986;2022-09-14T05:30:30;99182.84;;;19.12;100.00
4346;BME280;2186;49.866;7.986;2022-09-14T05:32:56;99173.91;;;19.00;100.00
4346;BME280;2186;49.866;7.986;2022-09-14T05:35:23;99175.50;;;19.03;100.00
4346;BME280;2186;49.866;7.986;2022-09-14T05:37:49;99174.66;;;19.02;100.00
4346;BME280;2186;49.866;7.986;2022-09-14T05:40:16;99183.09;;;19.09;100.00
4346;BME280;2186;49.866;7.986;2022-09-14T05:42:42;99183.44;;;19.15;100.00
4346;BME280;2186;49.866;7.986;2022-09-14T05:45:09;99181.00;;;19.23;100.00
4346;BME280;2186;49.866;7.986;2022-09-14T05:47:35;99178.69;;;19.19;100.00
4346;BME280;2186;49.866;7.986;2022-09-14T05:50:05;99184.31;;;19.16;100.00
4346;BME280;2186;49.866;7.986;2022-09-14T05:52:33;99179.91;;;19.15;100.00
4346;BME280;2186;49.866;7.986;2022-09-14T05:55:00;99182.09;;;19.21;100.00
4346;BME280;2186;49.866;7.986;2022-09-14T05:57:26;99185.88;;;19.18;100.00
4346;BME280;2186;49.866;7.986;2022-09-14T05:59:53;99181.47;;;19.17;100.00
4346;BME280;2186;49.866;7.986;2022-09-14T06:02:19;99179.03;;;19.26;100.00
4346;BME280;2186;49.866;7.986;2022-09-14T06:04:45;99176.22;;;19.16;100.00
4346;BME280;2186;49.866;7.986;2022-09-14T06:07:12;99170.09;;;19.14;100.00
4346;BME280;2186;49.866;7.986;2022-09-14T06:09:44;99175.72;;;19.22;100.00
4346;BME280;2186;49.866;7.986;2022-09-14T06:12:11;99164.72;;;19.14;100.00
4346;BME280;2186;49.866;7.986;2022-09-14T06:14:39;99165.81;;;19.11;100.00
4346;BME280;2186;49.866;7.986;2022-09-14T06:17:06;99159.44;;;19.23;100.00
4346;BME280;2186;49.866;7.986;2022-09-14T06:19:32;99163.19;;;19.32;100.00
4346;BME280;2186;49.866;7.986;2022-09-14T06:21:59;99177.06;;;19.28;100.00
4346;BME280;2186;49.866;7.986;2022-09-14T06:24:25;99194.44;;;19.35;100.00
4346;BME280;2186;49.866;7.986;2022-09-14T06:26:52;99184.59;;;19.45;100.00
4346;BME280;2186;49.866;7.986;2022-09-14T06:29:18;99189.75;;;19.48;100.00
4346;BME280;2186;49.866;7.986;2022-09-14T06:31:45;99180.00;;;19.36;100.00
4346;BME280;2186;49.866;7.986;2022-09-14T06:34:11;99181.81;;;19.35;100.00
4346;BME280;2186;49.866;7.986;2022-09-14T06:36:37;99190.63;;;19.37;100.00
4346;BME280;2186;49.866;7.986;2022-09-14T06:39:04;99185.44;;;19.45;100.00
4346;BME280;2186;49.866;7.986;2022-09-14T06:41:30;99184.13;;;19.40;100.00
4346;BME280;2186;49.866;7.986;2022-09-14T06:43:59;99178.75;;;19.29;100.00
4346;BME280;2186;49.866;7.986;2022-09-14T06:46:29;99170.34;;;19.22;100.00
4346;BME280;2186;49.866;7.986;2022-09-14T06:49:04;99169.69;;;19.30;100.00
4346;BME280;2186;49.866;7.986;2022-09-14T06:51:36;99167.09;;;19.39;100.00
4346;BME280;2186;49.866;7.986;2022-09-14T06:54:03;99159.47;;;19.44;100.00
4346;BME280;2186;49.866;7.986;2022-09-14T06:56:32;99151.41;;;19.44;100.00
4346;BME280;2186;49.866;7.986;2022-09-14T06:58:59;99154.22;;;19.43;100.00
4346;BME280;2186;49.866;7.986;2022-09-14T07:01:26;99171.03;;;19.46;100.00
4346;BME280;2186;49.866;7.986;2022-09-14T07:03:53;99165.09;;;19.52;100.00
4346;BME280;2186;49.866;7.986;2022-09-14T07:06:22;99163.03;;;19.45;100.00
4346;BME280;2186;49.866;7.986;2022-09-14T07:08:50;99161.31;;;19.55;100.00
4346;BME280;2186;49.866;7.986;2022-09-14T07:11:22;99157.63;;;19.56;100.00
4346;BME280;2186;49.866;7.986;2022-09-14T07:13:52;99149.63;;;19.66;100.00
4346;BME280;2186;49.866;7.986;2022-09-14T07:16:26;99150.03;;;19.61;100.00
4346;BME280;2186;49.866;7.986;2022-09-14T07:18:57;99153.66;;;19.71;100.00
4346;BME280;2186;49.866;7.986;2022-09-14T07:21:25;99160.16;;;19.69;100.00
4346;BME280;2186;49.866;7.986;2022-09-14T07:23:51;99159.19;;;19.70;100.00
4346;BME280;2186;49.866;7.986;2022-09-14T07:26:21;99160.84;;;19.82;100.00
4346;BME280;2186;49.866;7.986;2022-09-14T07:28:51;99169.59;;;19.95;100.00
4346;BME280;2186;49.866;7.986;2022-09-14T07:31:20;99172.03;;;19.98;100.00
4346;BME280;2186;49.866;7.986;2022-09-14T07:33:47;99164.78;;;19.78;100.00
4346;BME280;2186;49.866;7.986;2022-09-14T07:36:14;99169.66;;;19.84;100.00
4346;BME280;2186;49.866;7.986;2022-09-14T07:38:40;99178.38;;;19.88;100.00
4346;BME280;2186;49.866;7.986;2022-09-14T07:41:19;99188.75;;;19.92;100.00
4346;BME280;2186;49.866;7.986;2022-09-14T07:43:53;99181.56;;;19.81;100.00
4346;BME280;2186;49.866;7.986;2022-09-14T07:46:20;99176.97;;;19.93;100.00
4346;BME280;2186;49.866;7.986;2022-09-14T07:48:47;99187.34;;;19.98;100.00
4346;BME280;2186;49.866;7.986;2022-09-14T07:51:15;99198.81;;;19.90;100.00
4346;BME280;2186;49.866;7.986;2022-09-14T07:53:42;99191.44;;;19.92;100.00
4346;BME280;2186;49.866;7.986;2022-09-14T07:56:09;99183.94;;;19.96;100.00
4346;BME280;2186;49.866;7.986;2022-09-14T07:58:36;99203.81;;;19.95;100.00
4346;BME280;2186;49.866;7.986;2022-09-14T08:01:06;99205.53;;;19.96;100.00
4346;BME280;2186;49.866;7.986;2022-09-14T08:03:34;99206.84;;;20.22;100.00
4346;BME280;2186;49.866;7.986;2022-09-14T08:06:04;99194.00;;;20.15;100.00
4346;BME280;2186;49.866;7.986;2022-09-14T08:08:32;99191.00;;;20.29;100.00
4346;BME280;2186;49.866;7.986;2022-09-14T08:13:34;99203.41;;;19.99;100.00
4346;BME280;2186;49.866;7.986;2022-09-14T08:16:00;99197.59;;;20.15;100.00
4346;BME280;2186;49.866;7.986;2022-09-14T08:18:28;99199.41;;;20.35;100.00
4346;BME280;2186;49.866;7.986;2022-09-14T08:20:56;99194.97;;;20.46;100.00
4346;BME280;2186;49.866;7.986;2022-09-14T08:23:22;99193.84;;;20.48;100.00
4346;BME280;2186;49.866;7.986;2022-09-14T08:25:49;99197.53;;;20.47;100.00
4346;BME280;2186;49.866;7.986;2022-09-14T08:28:15;99208.75;;;20.43;100.00
4346;BME280;2186;49.866;7.986;2022-09-14T08:30:41;99214.34;;;20.39;100.00
4346;BME280;2186;49.866;7.986;2022-09-14T08:33:08;99218.41;;;20.45;100.00
4346;BME280;2186;49.866;7.986;2022-09-14T08:35:41;99218.66;;;20.42;100.00
4346;BME280;2186;49.866;7.986;2022-09-14T08:38:23;99220.00;;;20.48;100.00
4346;BME280;2186;49.866;7.986;2022-09-14T08:40:49;99210.56;;;20.42;100.00
4346;BME280;2186;49.866;7.986;2022-09-14T08:43:18;99218.59;;;20.53;100.00
4346;BME280;2186;49.866;7.986;2022-09-14T08:45:46;99223.84;;;20.55;100.00
4346;BME280;2186;49.866;7.986;2022-09-14T08:48:19;99228.66;;;20.72;100.00
4346;BME280;2186;49.866;7.986;2022-09-14T08:50:49;99233.28;;;20.60;100.00
4346;BME280;2186;49.866;7.986;2022-09-14T08:53:20;99242.09;;;20.62;100.00
4346;BME280;2186;49.866;7.986;2022-09-14T08:55:51;99243.03;;;20.52;100.00
4346;BME280;2186;49.866;7.986;2022-09-14T09:01:25;99216.81;;;20.63;100.00
4346;BME280;2186;49.866;7.986;2022-09-14T09:04:24;99211.91;;;20.78;100.00
4346;BME280;2186;49.866;7.986;2022-09-14T09:09:58;99188.78;;;20.85;100.00
4346;BME280;2186;49.866;7.986;2022-09-14T09:12:37;99196.69;;;20.77;100.00
4346;BME280;2186;49.866;7.986;2022-09-14T09:15:28;99212.63;;;20.80;100.00
4346;BME280;2186;49.866;7.986;2022-09-14T09:18:08;99219.22;;;20.87;100.00
4346;BME280;2186;49.866;7.986;2022-09-14T09:20:41;99216.16;;;20.81;100.00
4346;BME280;2186;49.866;7.986;2022-09-14T09:23:19;99204.75;;;20.98;100.00
4346;BME280;2186;49.866;7.986;2022-09-14T09:28:15;99207.03;;;21.03;100.00
4346;BME280;2186;49.866;7.986;2022-09-14T09:30:42;99207.03;;;21.03;100.00
4346;BME280;2186;49.866;7.986;2022-09-14T09:33:16;99218.19;;;21.19;100.00
4346;BME280;2186;49.866;7.986;2022-09-14T09:35:45;99202.94;;;21.18;100.00
4346;BME280;2186;49.866;7.986;2022-09-14T09:38:21;99207.66;;;21.16;100.00
4346;BME280;2186;49.866;7.986;2022-09-14T09:46:24;99193.78;;;21.30;100.00
4346;BME280;2186;49.866;7.986;2022-09-14T09:48:51;99196.06;;;21.35;100.00
4346;BME280;2186;49.866;7.986;2022-09-14T09:53:50;99174.72;;;21.51;100.00
4346;BME280;2186;49.866;7.986;2022-09-14T09:56:30;99178.16;;;21.53;100.00
4346;BME280;2186;49.866;7.986;2022-09-14T09:58:57;99175.75;;;21.59;100.00
4346;BME280;2186;49.866;7.986;2022-09-14T10:01:32;99168.47;;;21.60;100.00
4346;BME280;2186;49.866;7.986;2022-09-14T10:04:20;99163.94;;;21.61;100.00
4346;BME280;2186;49.866;7.986;2022-09-14T10:06:49;99152.56;;;21.67;100.00
4346;BME280;2186;49.866;7.986;2022-09-14T10:09:19;99159.94;;;21.65;100.00
4346;BME280;2186;49.866;7.986;2022-09-14T10:11:47;99149.13;;;21.45;100.00
4346;BME280;2186;49.866;7.986;2022-09-14T10:14:23;99153.13;;;21.70;100.00
4346;BME280;2186;49.866;7.986;2022-09-14T10:16:51;99156.09;;;21.77;100.00
4346;BME280;2186;49.866;7.986;2022-09-14T10:19:22;99146.56;;;21.82;100.00
4346;BME280;2186;49.866;7.986;2022-09-14T10:22:16;99140.72;;;21.68;100.00
4346;BME280;2186;49.866;7.986;2022-09-14T10:30:24;99122.63;;;21.78;100.00
4346;BME280;2186;49.866;7.986;2022-09-14T10:38:26;99111.66;;;22.08;100.00
4346;BME280;2186;49.866;7.986;2022-09-14T10:41:07;99110.38;;;22.12;100.00
4346;BME280;2186;49.866;7.986;2022-09-14T10:43:55;99111.38;;;22.11;100.00
4346;BME280;2186;49.866;7.986;2022-09-14T10:46:28;99102.78;;;22.26;100.00
4346;BME280;2186;49.866;7.986;2022-09-14T10:49:08;99095.84;;;22.13;100.00
4346;BME280;2186;49.866;7.986;2022-09-14T10:52:32;99099.53;;;22.03;100.00
4346;BME280;2186;49.866;7.986;2022-09-14T10:57:42;99102.63;;;22.27;100.00
4346;BME280;2186;49.866;7.986;2022-09-14T11:00:12;99098.59;;;22.41;100.00
4346;BME280;2186;49.866;7.986;2022-09-14T11:05:36;99096.84;;;22.50;100.00
4346;BME280;2186;49.866;7.986;2022-09-14T11:08:15;99096.13;;;22.85;100.00
4346;BME280;2186;49.866;7.986;2022-09-14T11:13:56;99109.69;;;22.85;100.00
4346;BME280;2186;49.866;7.986;2022-09-14T11:22:00;99101.09;;;23.52;100.00
4346;BME280;2186;49.866;7.986;2022-09-14T11:24:39;99088.97;;;23.11;100.00
4346;BME280;2186;49.866;7.986;2022-09-14T11:27:29;99083.56;;;23.29;100.00
4346;BME280;2186;49.866;7.986;2022-09-14T11:30:05;99089.06;;;23.55;100.00
4346;BME280;2186;49.866;7.986;2022-09-14T11:32:41;99085.44;;;23.46;100.00
4346;BME280;2186;49.866;7.986;2022-09-14T11:37:46;99079.34;;;23.44;100.00
4346;BME280;2186;49.866;7.986;2022-09-14T11:40:25;99069.31;;;23.09;100.00
4346;BME280;2186;49.866;7.986;2022-09-14T11:45:33;99074.56;;;23.28;100.00
4346;BME280;2186;49.866;7.986;2022-09-14T11:48:09;99073.44;;;23.31;100.00
4346;BME280;2186;49.866;7.986;2022-09-14T11:51:07;99065.16;;;23.32;100.00
4346;BME280;2186;49.866;7.986;2022-09-14T11:53:35;99057.22;;;23.39;100.00
4346;BME280;2186;49.866;7.986;2022-09-14T11:56:01;99057.41;;;23.73;100.00
4346;BME280;2186;49.866;7.986;2022-09-14T11:58:28;99058.84;;;23.50;100.00
4346;BME280;2186;49.866;7.986;2022-09-14T12:04:17;99058.09;;;23.75;100.00
4346;BME280;2186;49.866;7.986;2022-09-14T12:06:46;99056.16;;;23.68;100.00
4346;BME280;2186;49.866;7.986;2022-09-14T12:11:43;99057.44;;;23.81;100.00
4346;BME280;2186;49.866;7.986;2022-09-14T12:19:50;99038.94;;;23.77;100.00
4346;BME280;2186;49.866;7.986;2022-09-14T12:22:36;99030.25;;;23.73;100.00
4346;BME280;2186;49.866;7.986;2022-09-14T12:25:15;99024.19;;;23.79;100.00
4346;BME280;2186;49.866;7.986;2022-09-14T12:27:44;99027.06;;;23.78;100.00
4346;BME280;2186;49.866;7.986;2022-09-14T12:31:04;99025.03;;;23.80;100.00
4346;BME280;2186;49.866;7.986;2022-09-14T12:36:09;99033.81;;;23.74;100.00
4346;BME280;2186;49.866;7.986;2022-09-14T12:46:06;99031.00;;;23.57;100.00
4346;BME280;2186;49.866;7.986;2022-09-14T12:49:00;99027.38;;;23.75;100.00
4346;BME280;2186;49.866;7.986;2022-09-14T13:02:15;99033.78;;;23.56;100.00
4346;BME280;2186;49.866;7.986;2022-09-14T13:04:45;99028.56;;;23.72;100.00
4346;BME280;2186;49.866;7.986;2022-09-14T13:07:15;99030.50;;;23.62;100.00
4346;BME280;2186;49.866;7.986;2022-09-14T13:09:49;99023.81;;;23.74;100.00
4346;BME280;2186;49.866;7.986;2022-09-14T13:12:23;99026.97;;;23.70;100.00
4346;BME280;2186;49.866;7.986;2022-09-14T13:14:54;99026.94;;;23.61;100.00
4346;BME280;2186;49.866;7.986;2022-09-14T13:17:21;99023.41;;;23.69;100.00
4346;BME280;2186;49.866;7.986;2022-09-14T13:19:57;99022.13;;;23.73;100.00
4346;BME280;2186;49.866;7.986;2022-09-14T13:22:26;99011.88;;;23.49;100.00
4346;BME280;2186;49.866;7.986;2022-09-14T13:24:54;99017.31;;;23.49;100.00
4346;BME280;2186;49.866;7.986;2022-09-14T13:27:28;99005.84;;;23.73;100.00
4346;BME280;2186;49.866;7.986;2022-09-14T13:32:33;99010.69;;;23.70;100.00
4346;BME280;2186;49.866;7.986;2022-09-14T13:35:03;99006.72;;;23.82;100.00
4346;BME280;2186;49.866;7.986;2022-09-14T13:37:30;98996.44;;;23.93;100.00
4346;BME280;2186;49.866;7.986;2022-09-14T13:39:57;98999.22;;;24.02;100.00
4346;BME280;2186;49.866;7.986;2022-09-14T13:42:24;98987.25;;;23.86;100.00
4346;BME280;2186;49.866;7.986;2022-09-14T13:44:51;98994.41;;;23.96;100.00
4346;BME280;2186;49.866;7.986;2022-09-14T13:47:21;98995.28;;;23.96;100.00
4346;BME280;2186;49.866;7.986;2022-09-14T13:49:50;98993.13;;;24.08;100.00
4346;BME280;2186;49.866;7.986;2022-09-14T13:55:15;98986.94;;;23.89;100.00
4346;BME280;2186;49.866;7.986;2022-09-14T14:00:52;98983.25;;;23.99;100.00
4346;BME280;2186;49.866;7.986;2022-09-14T14:03:26;98975.91;;;23.91;100.00
4346;BME280;2186;49.866;7.986;2022-09-14T14:05:54;98977.16;;;24.05;100.00
4346;BME280;2186;49.866;7.986;2022-09-14T14:10:51;98978.13;;;23.96;100.00
4346;BME280;2186;49.866;7.986;2022-09-14T14:13:27;98978.53;;;24.09;100.00
4346;BME280;2186;49.866;7.986;2022-09-14T14:16:12;98977.25;;;23.87;100.00
4346;BME280;2186;49.866;7.986;2022-09-14T14:18:41;98972.94;;;24.10;100.00
4346;BME280;2186;49.866;7.986;2022-09-14T14:23:49;98957.88;;;23.82;100.00
4346;BME280;2186;49.866;7.986;2022-09-14T14:26:36;98961.53;;;23.99;100.00
4346;BME280;2186;49.866;7.986;2022-09-14T14:29:08;98954.53;;;23.88;100.00
4346;BME280;2186;49.866;7.986;2022-09-14T14:31:35;98958.00;;;24.06;100.00
4346;BME280;2186;49.866;7.986;2022-09-14T14:34:22;98943.97;;;24.19;100.00
4346;BME280;2186;49.866;7.986;2022-09-14T14:36:49;98944.81;;;24.19;100.00
4346;BME280;2186;49.866;7.986;2022-09-14T14:39:18;98927.63;;;24.11;100.00
4346;BME280;2186;49.866;7.986;2022-09-14T14:41:46;98922.41;;;24.17;100.00
4346;BME280;2186;49.866;7.986;2022-09-14T14:44:24;98908.84;;;24.17;100.00
4346;BME280;2186;49.866;7.986;2022-09-14T14:46:54;98902.88;;;24.14;100.00
4346;BME280;2186;49.866;7.986;2022-09-14T14:49:21;98911.13;;;24.30;100.00
4346;BME280;2186;49.866;7.986;2022-09-14T14:51:49;98897.38;;;24.32;100.00
4346;BME280;2186;49.866;7.986;2022-09-14T14:54:16;98907.09;;;24.42;100.00
4346;BME280;2186;49.866;7.986;2022-09-14T14:56:44;98916.63;;;24.55;100.00
4346;BME280;2186;49.866;7.986;2022-09-14T15:01:48;98906.06;;;24.43;100.00
4346;BME280;2186;49.866;7.986;2022-09-14T15:04:15;98911.72;;;24.24;100.00
4346;BME280;2186;49.866;7.986;2022-09-14T15:06:42;98907.84;;;24.27;100.00
4346;BME280;2186;49.866;7.986;2022-09-14T15:09:13;98907.31;;;24.23;100.00
4346;BME280;2186;49.866;7.986;2022-09-14T15:11:40;98908.50;;;24.20;100.00
4346;BME280;2186;49.866;7.986;2022-09-14T15:14:10;98909.91;;;23.90;100.00
4346;BME280;2186;49.866;7.986;2022-09-14T15:16:37;98908.72;;;23.85;100.00
4346;BME280;2186;49.866;7.986;2022-09-14T15:19:04;98913.06;;;24.20;100.00
4346;BME280;2186;49.866;7.986;2022-09-14T15:21:30;98921.81;;;23.98;100.00
4346;BME280;2186;49.866;7.986;2022-09-14T15:23:57;98909.63;;;24.02;100.00
4346;BME280;2186;49.866;7.986;2022-09-14T15:26:25;98902.72;;;23.81;100.00
4346;BME280;2186;49.866;7.986;2022-09-14T15:28:51;98902.47;;;23.67;100.00
4346;BME280;2186;49.866;7.986;2022-09-14T15:31:18;98902.44;;;23.92;100.00